Madison, South Carolina
Current Conditions -  °F | °C
As of 4:55 AM on Wednesday 26 Nov 2014 (Local Time) from KTOC Reporting Station
Light Rain Light Rain  
Wind Chill:   Ceiling: 6000
Heat Index:   Visibility: 7mi
Dew Point:   Wind: 0mph
Humidity: 99%   Direction: NA
Pressure: 29.95"   Gusts: NA
Location:  34.655°N, 83.1402°W
Report Text: KTOC 260955Z AUTO 00000KT 7SM -RA OVC060 08/08 A2995 RMK AO2 T00820080
Loading
Personal Weather Stations






























Interactive Weather Map New forecast layout! Learn more

10-Day Weather Forecast

Advertisements
Track Severe Weather on mobile